Time;durP1;ratioP1;P1;durP2;ratioP2;P2;SDS_P1;SDS_P2;PMS_P1;PMS_P2;Temp;Humidity;BMP_temperature;BMP_pressure;BME280_temperature;BME280_humidity;BME280_pressure;Samples;Min_cycle;Max_cycle;Signal;HPM_P1;HPM_P2
2023/01/05 00:01:10;;;;;;;4.10;2.60;;;;;;;8.90;73.97;99508.25;108051;1282;23682;-78
2023/01/05 00:03:48;;;;;;;5.90;3.40;;;;;;;8.89;74.07;99497.55;107940;1283;22437;-79
2023/01/05 00:06:19;;;;;;;4.60;3.50;;;;;;;8.93;74.07;99495.81;108089;1281;23134;-79
2023/01/05 00:08:52;;;;;;;5.00;3.40;;;;;;;8.94;74.08;99483.64;107845;1286;21945;-79
2023/01/05 00:23:14;;;;;;;4.30;2.80;;;;;;;8.96;74.37;99471.90;107565;1288;21999;-77
2023/01/05 00:25:45;;;;;;;3.90;2.80;;;;;;;9.02;74.07;99469.05;107525;1275;23366;-78
2023/01/05 00:28:15;;;;;;;3.70;2.60;;;;;;;9.07;73.88;99473.17;107509;1291;22737;-78
2023/01/05 00:30:48;;;;;;;4.30;2.80;;;;;;;9.10;73.80;99471.98;107565;1292;21969;-78
2023/01/05 00:33:23;;;;;;;4.90;3.30;;;;;;;9.15;73.64;99468.61;107894;1286;21998;-79
2023/01/05 00:35:59;;;;;;;5.10;3.40;;;;;;;9.17;73.57;99469.90;108041;1280;24422;-77
2023/01/05 00:38:29;;;;;;;5.80;3.70;;;;;;;9.20;73.39;99467.16;108275;1274;22013;-77
2023/01/05 00:40:58;;;;;;;5.30;2.80;;;;;;;9.23;73.26;99468.27;108555;1278;22850;-77
2023/01/05 00:43:31;;;;;;;5.00;3.60;;;;;;;9.25;73.08;99464.01;108291;1274;22804;-78
2023/01/05 00:46:01;;;;;;;5.40;3.60;;;;;;;9.27;73.04;99464.05;108546;1274;23574;-77
2023/01/05 00:48:36;;;;;;;5.40;3.00;;;;;;;9.31;73.00;99463.90;108672;1274;23579;-77
2023/01/05 00:51:11;;;;;;;4.80;3.10;;;;;;;9.33;72.88;99459.80;108171;1282;23209;-78
2023/01/05 00:53:46;;;;;;;4.80;3.70;;;;;;;9.32;72.78;99458.80;108178;1281;21943;-76
2023/01/05 00:56:21;;;;;;;6.70;4.10;;;;;;;9.31;72.69;99457.29;107783;1288;22036;-77
2023/01/05 00:58:56;;;;;;;5.40;4.20;;;;;;;9.31;72.83;99458.36;107800;1282;21952;-78
2023/01/05 01:01:26;;;;;;;4.90;3.40;;;;;;;9.30;72.73;99451.61;107698;1288;23114;-78
2023/01/05 01:03:59;;;;;;;6.10;4.20;;;;;;;9.31;72.86;99450.02;107801;1288;22712;-78
2023/01/05 01:06:30;;;;;;;4.30;2.70;;;;;;;9.33;72.85;99445.73;107801;1288;21948;-78
2023/01/05 01:09:03;;;;;;;5.30;2.70;;;;;;;9.33;72.99;99439.32;107846;1282;22259;-78
2023/01/05 01:11:34;;;;;;;6.90;3.40;;;;;;;9.33;72.99;99446.81;107784;1288;22916;-78
2023/01/05 01:14:09;;;;;;;4.90;3.10;;;;;;;9.33;73.12;99440.02;107965;1280;23618;-78
2023/01/05 01:16:42;;;;;;;4.00;1.90;;;;;;;9.34;73.27;99433.16;108321;1279;22396;-78
2023/01/05 01:19:21;;;;;;;6.00;2.50;;;;;;;9.35;73.35;99431.07;108338;1279;21934;-79
2023/01/05 01:21:53;;;;;;;2.90;1.60;;;;;;;9.34;73.44;99432.67;107809;1282;23621;-80
2023/01/05 01:24:28;;;;;;;4.20;1.80;;;;;;;9.35;73.66;99431.57;107786;1286;21944;-78
2023/01/05 01:26:58;;;;;;;3.10;1.90;;;;;;;9.36;73.86;99423.21;108033;1286;21983;-78
2023/01/05 01:29:31;;;;;;;3.70;1.60;;;;;;;9.37;73.93;99423.84;107952;1283;23608;-79
2023/01/05 01:32:08;;;;;;;3.40;2.00;;;;;;;9.37;74.08;99418.44;108248;1283;22947;-80
2023/01/05 01:34:54;;;;;;;2.40;1.40;;;;;;;9.38;74.35;99413.38;108476;1282;22053;-79
2023/01/05 01:37:24;;;;;;;2.30;1.10;;;;;;;9.42;74.54;99411.63;108437;1282;23682;-79
2023/01/05 01:39:59;;;;;;;2.60;1.20;;;;;;;9.45;74.64;99401.77;108444;1275;21925;-79
2023/01/05 01:42:34;;;;;;;1.90;1.00;;;;;;;9.47;74.74;99397.66;108849;1274;21990;-79
2023/01/05 01:45:22;;;;;;;3.00;1.30;;;;;;;9.50;74.75;99405.52;108768;1271;21918;-79
2023/01/05 01:47:59;;;;;;;1.90;1.00;;;;;;;9.52;74.96;99400.73;108640;1275;21990;-78
2023/01/05 01:50:58;;;;;;;1.30;0.80;;;;;;;9.55;75.20;99404.55;108724;1274;23661;-78
2023/01/05 01:53:49;;;;;;;2.90;1.20;;;;;;;9.57;75.26;99414.17;108703;1275;23064;-79
2023/01/05 01:56:40;;;;;;;1.60;0.80;;;;;;;9.61;75.23;99411.61;108783;1273;21929;-79
2023/01/05 01:59:16;;;;;;;4.00;1.30;;;;;;;9.63;75.21;99403.16;108590;1275;23064;-79
2023/01/05 02:01:57;;;;;;;2.80;0.90;;;;;;;9.62;75.22;99397.67;108360;1280;22392;-79
2023/01/05 02:04:34;;;;;;;2.90;1.20;;;;;;;9.61;75.26;99399.23;108178;1280;21926;-78
2023/01/05 02:07:14;;;;;;;3.80;1.20;;;;;;;9.60;75.42;99397.55;107840;1286;21934;-79
2023/01/05 02:09:46;;;;;;;2.50;1.20;;;;;;;9.60;75.44;99397.20;107801;1286;22902;-79
2023/01/05 02:12:52;;;;;;;1.90;1.00;;;;;;;9.60;75.53;99400.17;107866;1286;23156;-78
2023/01/05 02:16:18;;;;;;;2.00;1.30;;;;;;;9.59;75.70;99408.37;107806;1286;21940;-79
2023/01/05 02:19:07;;;;;;;2.20;1.40;;;;;;;9.57;75.89;99408.31;107473;1292;22008;-79
2023/01/05 02:21:50;;;;;;;3.40;1.30;;;;;;;9.57;75.88;99408.83;107274;1294;21968;-80
2023/01/05 02:25:02;;;;;;;3.90;1.40;;;;;;;9.57;75.91;99399.95;107332;1292;23617;-79
2023/01/05 02:28:16;;;;;;;4.10;1.70;;;;;;;9.54;75.88;99386.54;107927;1286;22747;-78
2023/01/05 02:31:20;;;;;;;6.30;2.00;;;;;;;9.49;76.01;99380.55;108294;1286;21973;-78
2023/01/05 02:34:18;;;;;;;2.30;1.60;;;;;;;9.48;76.18;99369.48;107800;1286;22822;-78
2023/01/05 02:37:02;;;;;;;2.50;1.60;;;;;;;9.49;76.25;99359.86;108026;1286;22819;-79
2023/01/05 02:40:20;;;;;;;2.60;1.20;;;;;;;9.52;76.23;99356.94;107833;1286;24088;-79
2023/01/05 02:42:54;;;;;;;2.30;1.20;;;;;;;9.50;76.21;99363.33;107917;1286;21938;-79
2023/01/05 02:45:24;;;;;;;2.10;1.00;;;;;;;9.49;76.11;99354.85;107059;1289;1416381;-80
2023/01/05 02:48:04;;;;;;;4.00;0.60;;;;;;;9.47;75.88;99361.55;108114;1288;21982;-80
2023/01/05 02:50:52;;;;;;;3.10;0.70;;;;;;;9.45;75.77;99368.44;107869;1289;21944;-78
2023/01/05 02:53:41;;;;;;;2.70;0.60;;;;;;;9.41;75.51;99374.01;107697;1288;23611;-79
2023/01/05 02:56:34;;;;;;;2.20;0.70;;;;;;;9.36;75.34;99373.70;108193;1281;23056;-79
2023/01/05 02:59:29;;;;;;;2.90;0.80;;;;;;;9.30;75.23;99374.86;108295;1281;23237;-78
2023/01/05 03:02:21;;;;;;;3.00;0.70;;;;;;;9.22;75.15;99381.16;107906;1286;21902;-78
2023/01/05 03:05:12;;;;;;;1.00;0.60;;;;;;;9.16;75.16;99382.14;108027;1280;21932;-79
2023/01/05 03:07:42;;;;;;;1.80;0.80;;;;;;;9.15;75.23;99384.61;108196;1281;21983;-78
2023/01/05 03:16:07;;;;;;;1.60;0.70;;;;;;;9.13;75.34;99400.50;108419;1280;22705;-78
2023/01/05 03:19:34;;;;;;;2.10;0.90;;;;;;;9.14;75.36;99408.94;108347;1280;21935;-79
2023/01/05 03:36:00;;;;;;;2.30;0.90;;;;;;;9.25;75.60;99399.25;108536;1276;24292;-79
2023/01/05 03:38:42;;;;;;;3.50;1.10;;;;;;;9.26;75.57;99397.13;108568;1277;21922;-78
2023/01/05 03:41:22;;;;;;;2.80;1.30;;;;;;;9.26;75.38;99394.51;108621;1275;21944;-78
2023/01/05 03:44:11;;;;;;;3.50;1.20;;;;;;;9.26;75.40;99392.96;108586;1277;21925;-78
2023/01/05 03:46:43;;;;;;;3.20;1.30;;;;;;;9.26;75.33;99385.64;108517;1276;23684;-79
2023/01/05 03:49:19;;;;;;;4.10;1.30;;;;;;;9.26;75.32;99386.18;108634;1277;22798;-79
2023/01/05 03:51:55;;;;;;;2.70;1.10;;;;;;;9.26;75.25;99380.64;108332;1279;21938;-79
2023/01/05 03:54:33;;;;;;;3.30;1.50;;;;;;;9.26;75.26;99381.82;108379;1277;23072;-78
2023/01/05 03:57:45;;;;;;;2.60;1.00;;;;;;;9.25;75.12;99393.73;108292;1279;23624;-77
2023/01/05 04:00:30;;;;;;;3.10;1.10;;;;;;;9.22;75.00;99399.90;107761;1283;23215;-78
2023/01/05 04:03:13;;;;;;;2.90;1.00;;;;;;;9.21;74.84;99401.16;107476;1291;21938;-79
2023/01/05 04:05:49;;;;;;;3.20;1.40;;;;;;;9.17;74.85;99396.67;107289;1295;22724;-79
2023/01/05 04:08:20;;;;;;;3.50;1.20;;;;;;;9.15;74.84;99401.08;107219;1293;23130;-79
2023/01/05 04:11:16;;;;;;;3.30;1.90;;;;;;;9.14;74.82;99389.31;107436;1289;21944;-78
2023/01/05 04:14:02;;;;;;;4.50;2.10;;;;;;;9.12;74.77;99392.73;107541;1287;24308;-78
2023/01/05 04:16:49;;;;;;;;;;;;;;;9.13;74.74;99394.96;107562;1290;23834;-79
2023/01/05 04:19:35;;;;;;;4.60;1.40;;;;;;;9.07;74.96;99393.14;107203;1295;23776;-78
2023/01/05 04:22:23;;;;;;;3.10;1.40;;;;;;;9.07;74.81;99388.98;107512;1286;22051;-79
2023/01/05 04:25:06;;;;;;;7.50;2.00;;;;;;;9.09;74.74;99392.34;107800;1289;24302;-78
2023/01/05 04:27:58;;;;;;;4.60;2.40;;;;;;;9.12;74.76;99396.38;107617;1284;23624;-78
2023/01/05 04:30:44;;;;;;;8.30;2.80;;;;;;;9.13;74.69;99396.69;107793;1285;24366;-78
2023/01/05 04:33:55;;;;;;;5.40;2.20;;;;;;;9.14;74.60;99395.26;108084;1285;21927;-78
2023/01/05 04:37:13;;;;;;;7.80;2.80;;;;;;;9.12;74.58;99398.28;107887;1280;21933;-79
2023/01/05 04:40:03;;;;;;;4.50;2.50;;;;;;;9.12;74.61;99397.92;108188;1284;23126;-78
2023/01/05 04:42:45;;;;;;;4.60;2.00;;;;;;;9.14;74.57;99396.61;107822;1289;22347;-78
2023/01/05 04:45:26;;;;;;;5.40;2.00;;;;;;;9.16;74.46;99396.87;107811;1286;23611;-79
2023/01/05 04:48:11;;;;;;;5.90;3.10;;;;;;;9.19;74.44;99394.86;107901;1283;23054;-79
2023/01/05 04:50:54;;;;;;;6.80;4.10;;;;;;;9.20;74.26;99394.27;108071;1283;21989;-79
2023/01/05 04:53:34;;;;;;;6.30;3.00;;;;;;;9.21;74.25;99395.41;108153;1283;23606;-79
2023/01/05 04:56:16;;;;;;;;;;;;;;;;;;;;;
2023/01/05 04:58:49;;;;;;;13.00;6.60;;;;;;;9.24;74.09;99391.80;108159;1281;21999;-78
2023/01/05 05:01:33;;;;;;;10.20;3.20;;;;;;;9.25;74.02;99393.18;108095;1283;24424;-79
2023/01/05 05:04:10;;;;;;;7.20;2.30;;;;;;;9.25;74.05;99393.54;108347;1283;22074;-79
2023/01/05 05:07:01;;;;;;;4.50;2.20;;;;;;;9.27;73.92;99389.77;108375;1283;22398;-78
2023/01/05 05:09:53;;;;;;;6.70;2.70;;;;;;;9.28;73.99;99391.30;108166;1276;22049;-79
2023/01/05 05:12:29;;;;;;;5.00;2.60;;;;;;;9.31;74.00;99391.31;108562;1276;21925;-79
2023/01/05 05:15:04;;;;;;;8.40;3.10;;;;;;;9.34;73.94;99393.41;108594;1276;22060;-78
2023/01/05 05:17:40;;;;;;;11.80;3.50;;;;;;;9.38;73.90;99389.27;108618;1276;23662;-78
2023/01/05 05:20:14;;;;;;;9.00;2.60;;;;;;;9.39;73.72;99388.52;108558;1275;22438;-78
2023/01/05 05:22:55;;;;;;;6.70;2.80;;;;;;;9.37;73.57;99390.34;108633;1274;22536;-78
2023/01/05 05:25:35;;;;;;;7.20;2.80;;;;;;;9.36;73.46;99388.11;108647;1274;23687;-77
2023/01/05 05:28:07;;;;;;;9.20;4.10;;;;;;;9.35;73.51;99384.89;108539;1276;22923;-78
2023/01/05 05:30:38;;;;;;;7.40;3.70;;;;;;;9.37;73.49;99385.48;108559;1276;22695;-78
2023/01/05 05:33:20;;;;;;;25.60;19.80;;;;;;;9.39;73.42;99387.30;108156;1281;23609;-79
2023/01/05 05:36:12;;;;;;;8.60;4.60;;;;;;;9.37;73.38;99387.23;108329;1280;23518;-77
2023/01/05 05:38:57;;;;;;;7.30;3.30;;;;;;;9.36;73.45;99391.40;108223;1280;23730;-78
2023/01/05 05:41:41;;;;;;;5.10;2.40;;;;;;;9.37;73.48;99395.02;108059;1284;21944;-79
2023/01/05 05:44:26;;;;;;;11.50;3.70;;;;;;;9.39;73.46;99393.55;108002;1286;21932;-78
2023/01/05 05:47:30;;;;;;;8.20;2.90;;;;;;;9.38;73.40;99394.98;107850;1285;22021;-78
2023/01/05 05:50:11;;;;;;;5.90;2.60;;;;;;;9.39;73.28;99399.98;108102;1281;23714;-78
2023/01/05 05:52:47;;;;;;;6.80;2.70;;;;;;;9.38;73.22;99396.19;108519;1280;23578;-77
2023/01/05 05:55:22;;;;;;;9.20;4.30;;;;;;;9.40;73.14;99396.27;108466;1280;23848;-79
2023/01/05 05:58:02;;;;;;;11.10;4.80;;;;;;;9.42;73.13;99393.22;108346;1280;22362;-78
2023/01/05 06:00:51;;;;;;;8.40;4.60;;;;;;;9.43;73.10;99393.00;108581;1275;22636;-78
2023/01/05 06:03:50;;;;;;;9.30;4.60;;;;;;;9.44;73.04;99398.02;108695;1262;21918;-78
2023/01/05 06:06:21;;;;;;;11.00;6.50;;;;;;;9.44;73.03;99390.37;108300;1280;21933;-78
2023/01/05 06:08:51;;;;;;;7.40;3.20;;;;;;;9.45;72.89;99392.23;108354;1280;23382;-78
2023/01/05 06:11:27;;;;;;;6.20;3.20;;;;;;;9.45;72.87;99400.89;108283;1280;23144;-78
2023/01/05 06:14:05;;;;;;;6.00;2.80;;;;;;;9.45;72.81;99398.46;108306;1279;21966;-79
2023/01/05 06:16:41;;;;;;;5.20;1.90;;;;;;;9.45;72.87;99396.20;108338;1280;21928;-79
2023/01/05 06:19:18;;;;;;;8.40;2.60;;;;;;;9.46;72.73;99398.61;108269;1277;23116;-78
2023/01/05 06:21:48;;;;;;;7.00;2.80;;;;;;;9.46;72.73;99404.12;108250;1280;23036;-79
2023/01/05 06:24:19;;;;;;;7.80;2.90;;;;;;;9.48;72.64;99399.73;108356;1274;21928;-78
2023/01/05 06:26:57;;;;;;;7.50;3.70;;;;;;;9.48;72.55;99395.01;108694;1275;21920;-78
2023/01/05 06:29:45;;;;;;;5.90;3.30;;;;;;;9.49;72.52;99394.27;108655;1266;21923;-80
2023/01/05 06:32:15;;;;;;;9.10;3.80;;;;;;;9.49;72.54;99397.55;108695;1269;23044;-80
2023/01/05 06:34:49;;;;;;;8.50;3.50;;;;;;;9.51;72.46;99396.62;108655;1275;23692;-77
2023/01/05 06:37:22;;;;;;;6.90;2.80;;;;;;;9.52;72.33;99396.89;108637;1275;21931;-77
2023/01/05 06:40:01;;;;;;;8.30;4.20;;;;;;;9.50;72.26;99398.73;108628;1275;21942;-77
2023/01/05 06:42:32;;;;;;;12.00;6.00;;;;;;;9.48;72.24;99398.47;108669;1275;21921;-78
2023/01/05 06:45:07;;;;;;;12.40;5.40;;;;;;;9.46;72.20;99407.80;108693;1274;23006;-77
2023/01/05 06:47:50;;;;;;;9.30;3.80;;;;;;;9.45;72.21;99413.73;108343;1278;24155;-78
2023/01/05 06:50:26;;;;;;;9.50;3.90;;;;;;;9.43;72.37;99402.04;108487;1280;22079;-77
2023/01/05 06:52:58;;;;;;;7.20;4.00;;;;;;;9.42;72.27;99403.10;108128;1284;23689;-77
2023/01/05 06:55:28;;;;;;;7.90;3.30;;;;;;;9.40;72.32;99403.02;107500;1288;21951;-78
2023/01/05 06:58:03;;;;;;;6.70;3.10;;;;;;;9.39;72.40;99405.33;107712;1289;23080;-76
2023/01/05 07:00:49;;;;;;;8.60;3.80;;;;;;;9.37;72.41;99402.31;107768;1289;22610;-78
2023/01/05 07:03:22;;;;;;;10.10;3.50;;;;;;;9.35;72.45;99410.55;107286;1294;21962;-76
2023/01/05 07:05:52;;;;;;;7.80;4.00;;;;;;;9.34;72.63;99413.05;107364;1288;21951;-76
2023/01/05 07:08:35;;;;;;;4.60;2.90;;;;;;;9.37;72.63;99419.50;107713;1288;21948;-81
2023/01/05 07:11:05;;;;;;;10.10;2.50;;;;;;;9.44;72.92;99427.14;107480;1288;22669;-83
2023/01/05 07:13:41;;;;;;;6.60;2.60;;;;;;;9.55;72.95;99432.88;108064;1285;23724;-79
2023/01/05 07:16:15;;;;;;;5.10;2.40;;;;;;;9.61;72.64;99437.45;107888;1281;21936;-78
2023/01/05 07:18:45;;;;;;;5.60;3.00;;;;;;;9.68;72.42;99444.06;108099;1285;23646;-80
2023/01/05 07:21:18;;;;;;;8.10;4.00;;;;;;;9.72;72.20;99445.41;107737;1285;22308;-80
2023/01/05 07:23:49;;;;;;;8.80;3.20;;;;;;;9.76;72.02;99449.61;107898;1281;22565;-78
2023/01/05 07:26:18;;;;;;;8.60;3.60;;;;;;;9.78;71.87;99453.30;108098;1283;21958;-78
2023/01/05 07:28:50;;;;;;;;;;;;;;;9.81;71.71;99457.31;108214;1280;21989;-78
2023/01/05 07:31:20;;;;;;;8.90;4.40;;;;;;;9.77;71.80;99463.43;108409;1280;21941;-77
2023/01/05 07:33:55;;;;;;;10.60;4.50;;;;;;;9.81;71.62;99460.99;108276;1280;22875;-78
2023/01/05 07:36:26;;;;;;;8.60;4.10;;;;;;;9.85;71.43;99462.54;108382;1280;21929;-78
2023/01/05 07:38:58;;;;;;;8.80;5.30;;;;;;;9.87;71.08;99457.58;108317;1274;23010;-77
2023/01/05 07:41:28;;;;;;;7.20;4.10;;;;;;;9.89;70.90;99453.64;108702;1274;21968;-78
2023/01/05 07:44:02;;;;;;;11.50;4.30;;;;;;;9.90;70.86;99455.36;108654;1274;21952;-79
2023/01/05 07:46:35;;;;;;;8.10;3.60;;;;;;;9.91;70.70;99454.73;108627;1263;22072;-78
2023/01/05 07:49:14;;;;;;;6.40;2.90;;;;;;;9.92;70.49;99456.13;108633;1274;23099;-79
2023/01/05 07:51:44;;;;;;;5.90;3.10;;;;;;;9.94;70.52;99457.75;108703;1267;23050;-81
2023/01/05 07:54:21;;;;;;;8.20;2.70;;;;;;;9.98;70.46;99456.33;108637;1274;22721;-83
2023/01/05 07:56:53;;;;;;;3.90;2.20;;;;;;;10.03;70.43;99454.03;108885;1274;21924;-78
2023/01/05 07:59:29;;;;;;;7.20;3.10;;;;;;;10.07;70.14;99451.91;108430;1277;23476;-78
2023/01/05 08:02:00;;;;;;;6.60;3.30;;;;;;;10.10;69.97;99461.29;108328;1277;22004;-78
2023/01/05 08:04:30;;;;;;;4.70;2.50;;;;;;;10.13;69.83;99466.20;108343;1277;21954;-77
2023/01/05 08:07:01;;;;;;;5.50;2.30;;;;;;;10.15;69.68;99469.73;108212;1278;23657;-76
2023/01/05 08:15:44;;;;;;;3.80;2.10;;;;;;;10.16;69.29;99479.77;108055;1279;21936;-78
2023/01/05 08:18:20;;;;;;;4.10;2.30;;;;;;;10.18;69.13;99482.47;108454;1276;23624;-78
2023/01/05 08:21:03;;;;;;;8.60;4.80;;;;;;;10.19;69.02;99483.29;108591;1277;23125;-78
2023/01/05 08:23:32;;;;;;;6.40;3.30;;;;;;;10.20;68.95;99488.61;108479;1278;21949;-77
2023/01/05 08:26:09;;;;;;;9.60;3.40;;;;;;;10.23;68.87;99493.02;108491;1278;21927;-76
2023/01/05 08:28:42;;;;;;;6.70;2.90;;;;;;;10.25;68.78;99498.10;108159;1283;23579;-74
2023/01/05 08:31:27;;;;;;;6.20;3.10;;;;;;;10.26;68.72;99498.23;108235;1277;23606;-76
2023/01/05 08:34:03;;;;;;;6.70;2.30;;;;;;;10.26;68.63;99502.27;108273;1276;21954;-75
2023/01/05 08:36:46;;;;;;;3.00;1.70;;;;;;;10.22;68.48;99499.14;108331;1276;22719;-75
2023/01/05 08:39:20;;;;;;;8.50;2.70;;;;;;;10.21;68.60;99488.40;108270;1280;23830;-76
2023/01/05 08:41:58;;;;;;;4.20;2.50;;;;;;;10.21;68.60;99495.36;108269;1279;21995;-76
2023/01/05 08:44:36;;;;;;;7.70;2.80;;;;;;;10.23;68.70;99500.65;107927;1286;21945;-76
2023/01/05 08:47:14;;;;;;;4.70;2.70;;;;;;;10.24;68.69;99502.00;108112;1279;23079;-76
2023/01/05 08:49:48;;;;;;;7.60;3.20;;;;;;;10.26;68.63;99509.73;108293;1279;23750;-76
2023/01/05 08:52:22;;;;;;;5.20;3.00;;;;;;;10.24;68.46;99511.73;108153;1279;21952;-76
2023/01/05 08:54:51;;;;;;;6.80;3.20;;;;;;;10.21;68.38;99513.45;108270;1280;21912;-79
2023/01/05 08:57:23;;;;;;;6.70;3.80;;;;;;;10.17;68.27;99519.88;108248;1280;21971;-75
2023/01/05 08:59:57;;;;;;;9.60;4.20;;;;;;;10.13;68.25;99528.75;108416;1279;23613;-76
2023/01/05 09:02:26;;;;;;;7.20;3.30;;;;;;;10.10;68.32;99529.61;108369;1274;23614;-77
2023/01/05 09:04:56;;;;;;;6.30;4.10;;;;;;;10.07;68.20;99529.58;108509;1274;21935;-75
2023/01/05 09:07:27;;;;;;;5.40;3.30;;;;;;;10.05;68.24;99536.99;108552;1274;21929;-76
2023/01/05 09:10:21;;;;;;;7.20;3.10;;;;;;;10.01;68.30;99541.00;108301;1279;22894;-76
2023/01/05 09:12:58;;;;;;;5.70;2.90;;;;;;;9.99;68.35;99537.64;108261;1280;23683;-76
2023/01/05 09:15:30;;;;;;;7.00;2.70;;;;;;;9.97;68.28;99535.46;107855;1285;21962;-76
2023/01/05 09:18:00;;;;;;;4.40;2.40;;;;;;;9.95;68.17;99531.19;107796;1285;23698;-75
2023/01/05 09:20:29;;;;;;;6.60;3.10;;;;;;;9.93;68.11;99531.15;107843;1285;21947;-76
2023/01/05 09:23:07;;;;;;;6.10;2.60;;;;;;;9.93;68.20;99534.45;107778;1285;21940;-77
2023/01/05 09:25:38;;;;;;;5.00;2.80;;;;;;;9.94;68.13;99532.80;107846;1284;23064;-75
2023/01/05 09:28:07;;;;;;;5.20;2.80;;;;;;;9.95;68.00;99538.67;108249;1279;21979;-76
2023/01/05 09:30:38;;;;;;;4.00;2.30;;;;;;;9.95;67.83;99536.77;108321;1279;22014;-75
2023/01/05 09:33:18;;;;;;;6.20;2.80;;;;;;;9.93;67.60;99537.89;108457;1274;23774;-75
2023/01/05 09:35:56;;;;;;;5.00;2.60;;;;;;;9.90;67.50;99531.98;108658;1275;23005;-75
2023/01/05 09:38:26;;;;;;;6.00;3.40;;;;;;;9.87;67.46;99535.09;108558;1277;21935;-75
2023/01/05 09:41:03;;;;;;;4.80;2.50;;;;;;;9.85;67.53;99535.88;108565;1273;23702;-76
2023/01/05 09:43:43;;;;;;;5.00;2.50;;;;;;;9.85;67.29;99536.92;108617;1275;22032;-75
2023/01/05 09:46:21;;;;;;;5.90;2.60;;;;;;;9.84;67.37;99538.18;108642;1273;23059;-76
2023/01/05 09:48:59;;;;;;;4.30;2.30;;;;;;;9.87;67.47;99536.11;108692;1275;21928;-76
2023/01/05 09:51:35;;;;;;;7.00;3.90;;;;;;;9.93;67.46;99535.45;108629;1275;22606;-76
2023/01/05 09:54:07;;;;;;;5.60;2.70;;;;;;;10.01;67.33;99536.50;108599;1275;21922;-76
2023/01/05 09:56:45;;;;;;;4.80;2.40;;;;;;;10.06;67.13;99539.02;108607;1275;22986;-75
2023/01/05 09:59:45;;;;;;;6.60;2.60;;;;;;;10.07;67.01;99543.83;108680;1275;23600;-75
2023/01/05 10:02:38;;;;;;;6.30;3.40;;;;;;;10.06;66.83;99545.80;108604;1275;21920;-76
2023/01/05 10:05:12;;;;;;;6.00;3.80;;;;;;;10.04;66.69;99544.54;108641;1275;23779;-76
2023/01/05 10:08:08;;;;;;;6.90;4.20;;;;;;;10.03;66.79;99543.70;108700;1273;22113;-75
2023/01/05 10:14:13;;;;;;;3.40;2.10;;;;;;;10.24;67.27;99538.52;108644;1275;21918;-76
2023/01/05 10:16:47;;;;;;;4.10;2.30;;;;;;;10.42;67.25;99534.50;108650;1275;21931;-76
2023/01/05 10:19:33;;;;;;;5.80;2.80;;;;;;;10.63;67.12;99536.58;108619;1275;22600;-76
2023/01/05 10:22:56;;;;;;;2.60;1.80;;;;;;;10.83;66.44;99536.29;108506;1281;21946;-76
2023/01/05 10:25:47;;;;;;;3.10;1.60;;;;;;;10.90;65.43;99536.79;108462;1272;22162;-75
2023/01/05 10:28:29;;;;;;;3.20;1.80;;;;;;;10.86;64.65;99534.20;108313;1278;23074;-75
2023/01/05 10:31:01;;;;;;;2.70;1.70;;;;;;;10.82;64.31;99535.96;108513;1273;23051;-75
2023/01/05 10:33:53;;;;;;;2.80;1.80;;;;;;;10.81;63.98;99530.64;108121;1286;23587;-75
2023/01/05 10:36:54;;;;;;;2.70;1.60;;;;;;;10.81;63.86;99530.82;108139;1283;21957;-75
2023/01/05 10:39:56;;;;;;;2.40;1.50;;;;;;;10.90;63.77;99529.27;108123;1280;23629;-76
2023/01/05 10:42:59;;;;;;;3.60;1.70;;;;;;;11.04;63.17;99529.05;108323;1271;22930;-76
2023/01/05 10:45:31;;;;;;;3.00;1.40;;;;;;;11.14;62.36;99531.13;108188;1279;21941;-75
2023/01/05 10:48:01;;;;;;;3.50;1.40;;;;;;;11.12;61.84;99532.30;108153;1283;21922;-76
2023/01/05 10:50:39;;;;;;;5.00;2.20;;;;;;;11.10;61.73;99537.45;108210;1281;21940;-76
2023/01/05 10:53:14;;;;;;;3.50;2.10;;;;;;;11.20;61.85;99535.86;108582;1274;22717;-76
2023/01/05 10:56:15;;;;;;;4.00;1.50;;;;;;;11.45;61.81;99533.66;108531;1274;21929;-76
2023/01/05 10:59:17;;;;;;;4.70;1.80;;;;;;;11.66;60.76;99532.18;108258;1283;22120;-75
2023/01/05 11:02:05;;;;;;;3.70;2.20;;;;;;;11.87;60.20;99530.52;108166;1284;21932;-75
2023/01/05 11:05:01;;;;;;;4.20;2.80;;;;;;;12.12;59.32;99530.48;108096;1281;21941;-75
2023/01/05 11:07:59;;;;;;;3.80;2.10;;;;;;;12.42;58.43;99534.03;108045;1283;22297;-75
2023/01/05 11:11:00;;;;;;;3.40;1.90;;;;;;;12.92;58.02;99535.95;108118;1283;22248;-75
2023/01/05 11:13:39;;;;;;;3.70;2.30;;;;;;;13.39;56.59;99542.32;108250;1284;22427;-75
2023/01/05 11:16:31;;;;;;;3.70;1.90;;;;;;;13.62;55.56;99547.36;108124;1283;21980;-74
2023/01/05 11:19:20;;;;;;;3.80;1.70;;;;;;;13.59;54.39;99552.48;108016;1281;23094;-75
2023/01/05 11:21:52;;;;;;;3.90;1.60;;;;;;;13.35;54.45;99553.23;108262;1281;21933;-75
2023/01/05 11:24:33;;;;;;;3.50;2.00;;;;;;;13.19;54.54;99549.48;108219;1278;21945;-76
2023/01/05 11:27:22;;;;;;;2.50;1.30;;;;;;;12.92;54.13;99547.64;107811;1287;21958;-75
2023/01/05 11:30:24;;;;;;;3.20;1.60;;;;;;;12.42;54.00;99548.48;107992;1286;21942;-75
2023/01/05 11:33:00;;;;;;;2.40;1.50;;;;;;;11.90;54.41;99555.27;107761;1287;21939;-76
2023/01/05 11:35:38;;;;;;;4.00;1.40;;;;;;;11.41;54.81;99559.14;108137;1278;23583;-76
2023/01/05 11:38:28;;;;;;;3.20;1.30;;;;;;;11.05;55.66;99560.68;108028;1284;22087;-75
2023/01/05 11:41:00;;;;;;;4.80;1.70;;;;;;;10.79;56.16;99561.53;107821;1284;21937;-75
2023/01/05 11:43:32;;;;;;;4.20;2.50;;;;;;;10.66;56.80;99568.46;108170;1284;23604;-75
2023/01/05 11:46:04;;;;;;;3.40;1.70;;;;;;;10.63;57.19;99562.53;108174;1281;23089;-76
2023/01/05 11:48:38;;;;;;;2.80;1.40;;;;;;;10.61;57.32;99561.73;108496;1280;21953;-76
2023/01/05 11:51:09;;;;;;;7.00;2.70;;;;;;;10.61;57.73;99563.98;108393;1280;21951;-75
2023/01/05 11:53:39;;;;;;;3.80;2.30;;;;;;;10.64;57.91;99560.72;108220;1280;23671;-75
2023/01/05 11:56:23;;;;;;;6.80;2.20;;;;;;;10.70;58.30;99561.98;108453;1275;21894;-75
2023/01/05 11:58:57;;;;;;;3.30;1.80;;;;;;;10.73;58.27;99561.83;108588;1275;23007;-74
2023/01/05 12:01:58;;;;;;;3.60;2.40;;;;;;;10.73;58.35;99566.16;108214;1281;23094;-77
2023/01/05 12:04:36;;;;;;;4.90;2.50;;;;;;;10.66;58.10;99562.38;108279;1281;21933;-75
2023/01/05 12:07:26;;;;;;;5.40;3.50;;;;;;;10.55;58.24;99569.36;108471;1281;23088;-76
2023/01/05 12:10:38;;;;;;;6.00;2.40;;;;;;;10.48;58.64;99566.05;108281;1281;21940;-74
2023/01/05 12:13:52;;;;;;;4.30;2.40;;;;;;;10.38;58.58;99567.39;108448;1280;23657;-76
2023/01/05 12:16:53;;;;;;;5.70;3.50;;;;;;;10.29;58.47;99571.66;108425;1281;22717;-75
2023/01/05 12:19:54;;;;;;;5.50;3.30;;;;;;;10.18;58.41;99576.15;108427;1277;23048;-74
2023/01/05 12:23:01;;;;;;;5.80;2.80;;;;;;;10.07;58.55;99569.77;108350;1281;23856;-75
2023/01/05 12:25:56;;;;;;;7.40;2.90;;;;;;;9.97;58.78;99571.10;108189;1281;21941;-75
2023/01/05 12:29:13;;;;;;;4.50;2.20;;;;;;;9.92;58.86;99577.56;108167;1281;21938;-75
2023/01/05 12:32:36;;;;;;;2.60;1.40;;;;;;;9.87;58.82;99575.21;108191;1276;22380;-75
2023/01/05 12:36:02;;;;;;;5.90;2.10;;;;;;;9.81;58.68;99576.37;108312;1280;21949;-76
2023/01/05 12:38:45;;;;;;;3.60;1.40;;;;;;;9.74;58.36;99579.50;108443;1280;23018;-76
2023/01/05 12:42:14;;;;;;;3.40;1.10;;;;;;;9.69;57.89;99584.21;108526;1276;21925;-76
2023/01/05 12:45:22;;;;;;;5.10;1.60;;;;;;;9.60;57.54;99584.13;108572;1274;22020;-78
2023/01/05 12:48:17;;;;;;;3.90;1.40;;;;;;;9.53;57.33;99587.20;108862;1273;23072;-75
2023/01/05 12:51:26;;;;;;;4.40;1.70;;;;;;;9.49;57.34;99588.28;108613;1274;23673;-76
2023/01/05 12:53:59;;;;;;;3.70;1.60;;;;;;;9.43;57.39;99588.70;108590;1274;21970;-75
2023/01/05 12:56:46;;;;;;;4.40;2.10;;;;;;;9.39;57.23;99590.09;108616;1274;21956;-75
2023/01/05 12:59:51;;;;;;;4.40;1.90;;;;;;;9.38;57.46;99594.48;108539;1274;21928;-76
2023/01/05 13:02:52;;;;;;;3.00;1.70;;;;;;;9.35;57.50;99595.81;108554;1274;21931;-75
2023/01/05 13:05:49;;;;;;;4.80;1.80;;;;;;;9.33;57.64;99601.32;108649;1274;21936;-76
2023/01/05 13:08:36;;;;;;;3.90;2.00;;;;;;;9.33;57.62;99602.15;108766;1272;21931;-75
2023/01/05 13:11:35;;;;;;;3.10;1.80;;;;;;;9.32;57.75;99606.22;108580;1269;21954;-76
2023/01/05 13:14:16;;;;;;;3.50;2.20;;;;;;;9.30;57.68;99602.48;108409;1274;21931;-79
2023/01/05 13:17:22;;;;;;;8.00;3.50;;;;;;;9.27;57.75;99598.29;108175;1282;21966;-77
2023/01/05 13:20:26;;;;;;;7.00;2.40;;;;;;;9.20;57.92;99607.44;108268;1281;22003;-77
2023/01/05 13:23:16;;;;;;;8.20;3.20;;;;;;;9.16;58.02;99611.27;108098;1283;21962;-79